createdAt,value
2018-04-12T00:01:27.450Z,1.60
2018-04-12T00:03:55.270Z,1.50
2018-04-12T00:06:23.084Z,1.60
2018-04-12T00:08:50.874Z,1.60
2018-04-12T00:11:18.776Z,1.60
2018-04-12T00:13:46.516Z,1.60
2018-04-12T00:16:14.336Z,1.50
2018-04-12T00:18:42.857Z,1.50
2018-04-12T00:21:10.389Z,1.50
2018-04-12T00:23:39.051Z,1.50
2018-04-12T00:26:06.838Z,1.50
2018-04-12T00:28:34.646Z,1.50
2018-04-12T00:31:02.508Z,1.50
2018-04-12T00:33:30.046Z,1.50
2018-04-12T00:35:57.819Z,1.50
2018-04-12T00:38:25.592Z,1.50
2018-04-12T00:40:53.875Z,1.50
2018-04-12T00:43:22.996Z,1.50
2018-04-12T00:45:51.268Z,1.50
2018-04-12T00:48:19.610Z,1.50
2018-04-12T00:50:47.466Z,1.50
2018-04-12T00:53:37.205Z,1.50
2018-04-12T00:56:04.977Z,1.50
2018-04-12T00:58:33.037Z,1.40
2018-04-12T01:01:01.450Z,1.40
2018-04-12T01:03:29.220Z,1.40
2018-04-12T01:05:57.006Z,1.40
2018-04-12T01:08:24.764Z,1.40
2018-04-12T01:10:52.514Z,1.40
2018-04-12T01:13:20.319Z,1.30
2018-04-12T01:15:47.854Z,1.30
2018-04-12T01:18:15.427Z,1.40
2018-04-12T01:20:43.005Z,1.40
2018-04-12T01:23:10.814Z,1.30
2018-04-12T01:25:38.973Z,1.30
2018-04-12T01:28:06.716Z,1.30
2018-04-12T01:30:34.536Z,1.30
2018-04-12T01:33:15.199Z,1.30
2018-04-12T01:35:43.004Z,1.30
2018-04-12T01:38:10.790Z,1.30
2018-04-12T01:40:38.582Z,1.30
2018-04-12T01:43:06.336Z,1.30
2018-04-12T01:45:34.147Z,1.30
2018-04-12T01:48:02.669Z,1.30
2018-04-12T01:50:30.443Z,1.30
2018-04-12T01:52:58.574Z,1.30
2018-04-12T01:55:26.198Z,1.30
2018-04-12T01:57:54.874Z,1.30
2018-04-12T02:00:23.570Z,1.30
2018-04-12T02:02:51.455Z,1.30
2018-04-12T02:05:18.997Z,1.30
2018-04-12T02:07:47.060Z,1.30
2018-04-12T02:10:14.880Z,1.30
2018-04-12T02:12:42.670Z,1.30
2018-04-12T02:15:10.282Z,1.30
2018-04-12T02:17:38.041Z,1.30
2018-04-12T02:20:05.634Z,1.30
2018-04-12T02:22:33.175Z,1.30
2018-04-12T02:25:00.965Z,2.00
2018-04-12T02:27:28.916Z,1.20
2018-04-12T02:29:56.719Z,1.20
2018-04-12T02:32:25.118Z,1.20
2018-04-12T02:34:52.930Z,1.20
2018-04-12T02:37:21.462Z,1.20
2018-04-12T02:39:48.990Z,1.20
2018-04-12T02:42:16.787Z,1.20
2018-04-12T02:44:45.273Z,1.20
2018-04-12T02:47:13.392Z,1.20
2018-04-12T02:49:41.033Z,1.60
2018-04-12T02:52:08.552Z,1.20
2018-04-12T02:54:36.078Z,1.20
2018-04-12T02:57:04.680Z,1.20
2018-04-12T02:59:33.261Z,1.20
2018-04-12T03:02:01.138Z,1.20
2018-04-12T03:04:29.446Z,1.20
2018-04-12T03:06:57.286Z,1.10
2018-04-12T03:09:25.098Z,1.10
2018-04-12T03:11:52.916Z,1.20
2018-04-12T03:14:20.904Z,1.10
2018-04-12T03:16:49.023Z,1.10
2018-04-12T03:19:16.900Z,1.10
2018-04-12T03:21:44.758Z,1.10
2018-04-12T03:24:13.105Z,1.10
2018-04-12T03:26:40.643Z,1.10
2018-04-12T03:29:08.400Z,1.10
2018-04-12T03:31:36.255Z,1.10
2018-04-12T03:34:03.832Z,1.10
2018-04-12T03:36:31.612Z,1.10
2018-04-12T03:38:59.352Z,1.10
2018-04-12T03:41:26.946Z,1.10
2018-04-12T03:43:54.739Z,1.10
2018-04-12T03:46:24.271Z,1.10
2018-04-12T03:48:52.989Z,1.10
2018-04-12T03:51:20.511Z,1.00
2018-04-12T03:53:48.322Z,1.10
2018-04-12T03:56:15.859Z,1.00
2018-04-12T03:58:44.145Z,1.00
2018-04-12T04:01:12.792Z,1.00
2018-04-12T04:03:40.386Z,1.00
2018-04-12T04:06:07.905Z,1.00
2018-04-12T04:08:35.981Z,1.10
2018-04-12T04:11:03.764Z,1.10
2018-04-12T04:13:31.661Z,1.20
2018-04-12T04:19:11.210Z,1.50
2018-04-12T04:21:39.225Z,1.50
2018-04-12T04:24:07.094Z,1.70
2018-04-12T04:26:34.922Z,2.00
2018-04-12T04:29:02.805Z,2.20
2018-04-12T04:31:31.386Z,2.80
2018-04-12T04:33:59.782Z,3.10
2018-04-12T04:36:28.072Z,3.40
2018-04-12T04:38:56.886Z,3.70
2018-04-12T04:41:24.970Z,3.70
2018-04-12T04:43:52.732Z,4.00
2018-04-12T04:46:20.266Z,4.30
2018-04-12T04:48:48.050Z,4.50
2018-04-12T04:51:15.773Z,4.70
2018-04-12T04:53:45.094Z,5.10
2018-04-12T04:56:13.027Z,5.10
2018-04-12T04:58:40.900Z,5.30
2018-04-12T05:01:08.665Z,5.40
2018-04-12T05:03:36.225Z,5.40
2018-04-12T05:06:03.786Z,5.40
2018-04-12T05:08:31.624Z,5.50
2018-04-12T05:11:00.205Z,5.50
2018-04-12T05:13:28.802Z,5.50
2018-04-12T05:15:56.384Z,5.50
2018-04-12T05:18:24.228Z,5.40
2018-04-12T05:20:52.102Z,5.30
2018-04-12T05:23:19.910Z,5.30
2018-04-12T05:25:47.883Z,5.20
2018-04-12T05:28:15.757Z,5.20
2018-04-12T05:30:43.540Z,5.20
2018-04-12T05:33:11.433Z,5.10
2018-04-12T05:35:39.243Z,5.00
2018-04-12T05:38:07.875Z,4.90
2018-04-12T05:40:35.748Z,4.90
2018-04-12T05:43:03.301Z,4.80
2018-04-12T05:45:31.051Z,4.70
2018-04-12T05:47:58.860Z,4.70
2018-04-12T05:50:26.664Z,4.60
2018-04-12T05:52:55.004Z,4.50
2018-04-12T05:55:22.551Z,4.50
2018-04-12T05:57:50.324Z,4.50
2018-04-12T06:00:18.151Z,4.60
2018-04-12T06:02:46.737Z,4.70
2018-04-12T06:05:15.055Z,4.90
2018-04-12T06:07:42.899Z,4.90
2018-04-12T06:10:11.527Z,5.50
2018-04-12T06:12:39.606Z,5.60
2018-04-12T06:15:07.328Z,5.90
2018-04-12T06:17:35.908Z,6.40
2018-04-12T06:20:03.518Z,6.40
2018-04-12T06:22:31.296Z,6.80
2018-04-12T06:24:59.130Z,7.20
2018-04-12T06:27:27.775Z,8.30
2018-04-12T06:29:55.345Z,8.30
2018-04-12T06:32:22.892Z,9.00
2018-04-12T06:34:50.437Z,9.60
2018-04-12T06:37:18.023Z,10.10
2018-04-12T06:39:45.966Z,10.70
2018-04-12T06:42:14.536Z,12.00
2018-04-12T06:44:43.628Z,12.70
2018-04-12T06:47:12.316Z,13.40
2018-04-12T06:49:40.945Z,14.00
2018-04-12T06:52:08.752Z,14.00
2018-04-12T06:54:36.585Z,14.50
2018-04-12T06:57:04.457Z,15.00
2018-04-12T06:59:32.287Z,15.30
2018-04-12T07:02:00.869Z,16.30
2018-04-12T07:04:29.205Z,16.80
2018-04-12T07:06:57.081Z,16.70
2018-04-12T07:09:24.636Z,17.00
2018-04-12T07:11:52.472Z,17.00
2018-04-12T07:14:21.036Z,16.50
2018-04-12T07:16:49.510Z,16.10
2018-04-12T07:19:17.403Z,16.10
2018-04-12T07:21:46.018Z,15.50
2018-04-12T07:24:13.886Z,15.40
2018-04-12T07:26:41.440Z,15.00
2018-04-12T07:29:10.028Z,14.20
2018-04-12T07:31:38.824Z,13.90
2018-04-12T07:34:07.376Z,13.70
2018-04-12T07:36:35.216Z,13.70
2018-04-12T07:39:02.768Z,13.70
2018-04-12T07:41:30.616Z,13.60
2018-04-12T07:43:59.204Z,13.80
2018-04-12T07:46:27.801Z,14.10
2018-04-12T07:48:56.415Z,14.30
2018-04-12T07:51:24.249Z,14.30
2018-04-12T07:53:52.708Z,14.50
2018-04-12T07:56:20.509Z,14.50
2018-04-12T07:58:48.417Z,14.60
2018-04-12T08:01:16.413Z,14.70
2018-04-12T08:03:44.424Z,14.90
2018-04-12T08:06:12.300Z,15.00
2018-04-12T08:08:41.145Z,15.20
2018-04-12T08:11:08.776Z,15.20
2018-04-12T08:13:36.344Z,15.30
2018-04-12T08:16:04.201Z,15.30
2018-04-12T08:18:32.525Z,15.50
2018-04-12T08:21:00.147Z,15.40
2018-04-12T08:23:28.784Z,15.80
2018-04-12T08:25:56.605Z,15.70
2018-04-12T08:28:24.920Z,15.70
2018-04-12T08:30:52.487Z,15.70
2018-04-12T08:33:20.496Z,15.60
2018-04-12T08:35:48.300Z,15.50
2018-04-12T08:38:16.989Z,15.10
2018-04-12T08:40:45.715Z,14.90
2018-04-12T08:43:13.546Z,14.90
2018-04-12T08:45:42.175Z,14.60
2018-04-12T08:48:10.592Z,14.60
2018-04-12T08:50:38.387Z,14.50
2018-04-12T08:53:07.852Z,14.20
2018-04-12T08:55:37.156Z,14.20
2018-04-12T08:58:04.709Z,14.00
2018-04-12T09:00:33.389Z,13.70
2018-04-12T09:03:00.942Z,13.50
2018-04-12T09:05:28.833Z,13.40
2018-04-12T09:07:57.004Z,13.20
2018-04-12T09:10:24.563Z,13.00
2018-04-12T09:12:52.118Z,12.90
2018-04-12T09:15:21.308Z,12.80
2018-04-12T09:17:49.833Z,12.70
2018-04-12T09:20:17.464Z,12.70
2018-04-12T09:22:45.786Z,12.50
2018-04-12T09:25:13.576Z,12.50
2018-04-12T09:27:41.412Z,12.40
2018-04-12T09:30:09.005Z,12.40
2018-04-12T09:32:36.934Z,12.40
2018-04-12T09:35:06.093Z,12.20
2018-04-12T09:37:34.673Z,12.20
2018-04-12T09:40:02.236Z,12.20
2018-04-12T09:42:30.041Z,12.20
2018-04-12T09:44:58.475Z,12.00
2018-04-12T09:47:26.171Z,12.00
2018-04-12T09:49:54.008Z,11.90
2018-04-12T09:52:21.880Z,11.90
2018-04-12T09:54:49.758Z,11.90
2018-04-12T09:57:17.740Z,11.80
2018-04-12T09:59:45.632Z,11.70
2018-04-12T10:02:14.416Z,11.70
2018-04-12T10:04:47.885Z,11.60
2018-04-12T10:07:17.467Z,11.60
2018-04-12T10:09:46.054Z,11.60
2018-04-12T10:12:14.371Z,11.60
2018-04-12T10:14:42.343Z,11.50
2018-04-12T10:17:10.128Z,11.50
2018-04-12T10:19:37.844Z,11.50
2018-04-12T10:22:06.158Z,11.30
2018-04-12T10:24:34.026Z,11.30
2018-04-12T10:27:01.833Z,11.30
2018-04-12T10:29:29.675Z,11.30
2018-04-12T10:31:57.325Z,11.30
2018-04-12T10:34:25.127Z,12.10
2018-04-12T10:36:53.056Z,11.20
2018-04-12T10:39:21.767Z,11.20
2018-04-12T10:41:49.339Z,11.20
2018-04-12T10:44:17.796Z,11.20
2018-04-12T10:46:46.505Z,11.30
2018-04-12T10:49:14.496Z,11.30
2018-04-12T10:51:42.358Z,11.30
2018-04-12T10:54:10.156Z,11.30
2018-04-12T10:56:39.604Z,11.40
2018-04-12T10:59:08.186Z,11.40
2018-04-12T11:01:36.132Z,11.40
2018-04-12T11:04:03.950Z,11.40
2018-04-12T11:06:32.524Z,11.40
2018-04-12T11:09:01.107Z,11.40
2018-04-12T11:11:29.920Z,11.40
2018-04-12T11:13:58.434Z,11.40
2018-04-12T11:16:26.025Z,11.40
2018-04-12T11:18:53.588Z,11.40
2018-04-12T11:21:21.241Z,11.50
2018-04-12T11:23:49.064Z,11.40
2018-04-12T11:26:17.498Z,11.40
2018-04-12T11:28:45.355Z,11.40
2018-04-12T11:31:12.903Z,11.40
2018-04-12T11:33:40.711Z,11.30
2018-04-12T11:36:08.524Z,11.30
2018-04-12T11:38:36.537Z,11.30
2018-04-12T11:41:04.149Z,11.40
2018-04-12T11:43:31.998Z,11.40
2018-04-12T11:45:59.829Z,11.30
2018-04-12T11:48:28.380Z,11.30
2018-04-12T11:50:55.931Z,11.30
2018-04-12T11:53:23.726Z,11.30
2018-04-12T11:55:52.401Z,11.30
2018-04-12T11:58:20.319Z,11.30
2018-04-12T12:00:48.163Z,11.30
2018-04-12T12:03:17.463Z,11.20
2018-04-12T12:05:46.186Z,11.20
2018-04-12T12:08:13.750Z,11.20
2018-04-12T12:10:41.590Z,11.20
2018-04-12T12:13:10.225Z,11.20
2018-04-12T12:15:38.618Z,11.20
2018-04-12T12:18:06.538Z,11.20
2018-04-12T12:20:35.231Z,11.20
2018-04-12T12:23:03.826Z,11.20
2018-04-12T12:25:33.220Z,11.20
2018-04-12T12:28:01.808Z,11.20
2018-04-12T12:30:29.356Z,11.20
2018-04-12T12:32:57.223Z,11.20
2018-04-12T12:35:25.976Z,11.20
2018-04-12T12:37:54.764Z,11.20
2018-04-12T12:40:23.343Z,11.20
2018-04-12T12:42:50.905Z,11.20
2018-04-12T12:45:18.451Z,11.20
2018-04-12T12:47:47.117Z,11.20
2018-04-12T12:50:15.003Z,11.20
2018-04-12T12:52:42.585Z,11.20
2018-04-12T12:55:10.530Z,11.20
2018-04-12T12:57:38.102Z,11.20
2018-04-12T13:00:05.675Z,11.20
2018-04-12T13:02:34.274Z,11.20
2018-04-12T13:05:02.105Z,11.20
2018-04-12T13:07:29.670Z,11.20
2018-04-12T13:09:57.500Z,11.20
2018-04-12T13:12:25.346Z,11.30
2018-04-12T13:14:53.218Z,11.30
2018-04-12T13:17:21.094Z,11.30
2018-04-12T13:19:49.658Z,11.30
2018-04-12T13:22:17.626Z,11.30
2018-04-12T13:24:45.474Z,11.30
2018-04-12T13:27:14.153Z,11.20
2018-04-12T13:29:42.015Z,11.20
2018-04-12T13:32:10.414Z,11.20
2018-04-12T13:34:38.205Z,11.20
2018-04-12T13:37:06.602Z,11.10
2018-04-12T13:39:35.342Z,11.10
2018-04-12T13:42:03.186Z,11.10
2018-04-12T13:44:31.874Z,11.10
2018-04-12T13:47:00.166Z,11.10
2018-04-12T13:49:28.134Z,11.10
2018-04-12T13:51:56.138Z,11.10
2018-04-12T13:54:23.818Z,11.10
2018-04-12T13:56:51.774Z,11.10
2018-04-12T13:59:19.726Z,11.00
2018-04-12T14:01:48.309Z,11.00
2018-04-12T14:04:16.875Z,11.00
2018-04-12T14:06:45.600Z,10.90
2018-04-12T14:09:13.290Z,10.90
2018-04-12T14:11:40.919Z,10.90
2018-04-12T14:14:09.615Z,10.80
2018-04-12T14:16:38.666Z,10.70
2018-04-12T14:19:06.507Z,10.70
2018-04-12T14:21:34.378Z,10.70
2018-04-12T14:24:02.764Z,10.60
2018-04-12T14:26:30.565Z,10.60
2018-04-12T14:28:59.154Z,10.60
2018-04-12T14:31:27.522Z,10.60
2018-04-12T14:33:55.292Z,10.50
2018-04-12T14:36:23.218Z,10.50
2018-04-12T14:38:51.854Z,10.50
2018-04-12T14:41:19.992Z,10.50
2018-04-12T14:43:47.817Z,10.40
2018-04-12T14:46:15.707Z,10.40
2018-04-12T14:48:43.527Z,10.40
2018-04-12T14:51:11.418Z,10.30
2018-04-12T14:53:39.214Z,10.30
2018-04-12T14:56:07.042Z,10.30
2018-04-12T14:58:35.342Z,10.30
2018-04-12T15:01:03.884Z,10.20
2018-04-12T15:03:31.735Z,10.20
2018-04-12T15:05:59.836Z,10.10
2018-04-12T15:08:28.287Z,10.10
2018-04-12T15:10:56.083Z,10.10
2018-04-12T15:13:24.251Z,10.00
2018-04-12T15:15:52.906Z,10.00
2018-04-12T15:18:20.820Z,9.90
2018-04-12T15:20:48.694Z,9.90
2018-04-12T15:23:17.398Z,9.50
2018-04-12T15:25:45.240Z,9.80
2018-04-12T15:28:12.809Z,9.80
2018-04-12T15:30:41.626Z,9.80
2018-04-12T15:33:09.520Z,9.80
2018-04-12T15:35:38.130Z,9.80
2018-04-12T15:38:05.742Z,9.70
2018-04-12T15:40:34.994Z,9.60
2018-04-12T15:43:02.630Z,9.60
2018-04-12T15:45:30.191Z,9.60
2018-04-12T15:47:58.022Z,9.60
2018-04-12T15:50:25.858Z,9.60
2018-04-12T15:52:54.028Z,9.50
2018-04-12T15:55:21.875Z,9.50
2018-04-12T15:57:50.082Z,9.50
2018-04-12T16:00:18.774Z,9.40
2018-04-12T16:02:46.814Z,9.40
2018-04-12T16:05:15.504Z,9.30
2018-04-12T16:07:44.101Z,9.30
2018-04-12T16:10:12.044Z,9.30
2018-04-12T16:12:40.914Z,9.20
2018-04-12T16:15:08.834Z,9.20
2018-04-12T16:17:37.391Z,9.10
2018-04-12T16:20:06.734Z,9.10
2018-04-12T16:22:35.311Z,9.10
2018-04-12T16:25:04.010Z,9.00
2018-04-12T16:27:31.958Z,9.00
2018-04-12T16:29:59.788Z,9.00
2018-04-12T16:32:27.644Z,9.00
2018-04-12T16:34:55.481Z,8.90
2018-04-12T16:37:23.234Z,8.90
2018-04-12T16:39:53.006Z,8.70
2018-04-12T16:42:20.868Z,8.70
2018-04-12T16:44:48.736Z,8.70
2018-04-12T16:47:17.298Z,8.60
2018-04-12T16:49:45.853Z,8.60
2018-04-12T16:52:13.723Z,8.50
2018-04-12T16:54:41.546Z,8.50
2018-04-12T16:57:09.342Z,8.50
2018-04-12T16:59:37.648Z,8.50
2018-04-12T17:02:05.474Z,8.40
2018-04-12T17:04:33.137Z,8.40
2018-04-12T17:07:01.144Z,8.40
2018-04-12T17:09:32.752Z,8.30
2018-04-12T17:12:00.860Z,8.30
2018-04-12T17:14:28.688Z,8.30
2018-04-12T17:16:57.282Z,8.20
2018-04-12T17:19:25.917Z,8.10
2018-04-12T17:21:53.787Z,8.10
2018-04-12T17:24:21.690Z,8.10
2018-04-12T17:26:49.524Z,8.00
2018-04-12T17:29:17.182Z,8.00
2018-04-12T17:31:44.982Z,8.00
2018-04-12T17:34:12.849Z,7.90
2018-04-12T17:36:40.649Z,7.80
2018-04-12T17:39:09.266Z,7.70
2018-04-12T17:41:37.886Z,7.70
2018-04-12T17:44:05.728Z,7.60
2018-04-12T17:46:34.417Z,7.60
2018-04-12T17:49:03.036Z,7.50
2018-04-12T17:51:30.879Z,7.50
2018-04-12T17:53:59.339Z,7.40
2018-04-12T17:56:27.237Z,7.40
2018-04-12T17:58:55.930Z,7.30
2018-04-12T18:01:24.498Z,7.20
2018-04-12T18:03:52.395Z,7.20
2018-04-12T18:06:19.960Z,7.10
2018-04-12T18:08:47.699Z,7.10
2018-04-12T18:11:15.729Z,7.00
2018-04-12T18:13:43.330Z,7.00
2018-04-12T18:16:11.237Z,6.90
2018-04-12T18:18:39.959Z,6.80
2018-04-12T18:21:07.812Z,6.80
2018-04-12T18:23:35.394Z,7.90
2018-04-12T18:26:03.233Z,6.70
2018-04-12T18:28:32.026Z,6.60
2018-04-12T18:31:00.645Z,6.50
2018-04-12T18:33:28.931Z,6.50
2018-04-12T18:35:56.687Z,6.50
2018-04-12T18:38:26.176Z,6.40
2018-04-12T18:40:54.866Z,6.30
2018-04-12T18:43:23.386Z,6.30
2018-04-12T18:45:51.351Z,6.20
2018-04-12T18:48:19.194Z,6.20
2018-04-12T18:50:47.886Z,6.20
2018-04-12T18:53:16.522Z,6.10
2018-04-12T18:55:45.890Z,6.10
2018-04-12T18:58:13.622Z,6.10
2018-04-12T19:03:10.410Z,6.00
2018-04-12T19:05:38.734Z,5.90
2018-04-12T19:08:06.408Z,5.90
2018-04-12T19:10:34.211Z,5.80
2018-04-12T19:13:02.133Z,5.80
2018-04-12T19:15:30.044Z,5.70
2018-04-12T19:17:58.462Z,5.60
2018-04-12T19:20:27.083Z,5.60
2018-04-12T19:22:55.668Z,5.50
2018-04-12T19:25:23.758Z,5.50
2018-04-12T19:27:51.692Z,5.40
2018-04-12T19:30:20.018Z,5.30
2018-04-12T19:32:48.781Z,5.30
2018-04-12T19:35:16.469Z,5.30
2018-04-12T19:37:44.035Z,5.20
2018-04-12T19:40:11.974Z,5.20
2018-04-12T19:42:40.662Z,5.10
2018-04-12T19:45:08.877Z,5.10
2018-04-12T19:47:36.707Z,5.00
2018-04-12T19:50:06.120Z,4.90
2018-04-12T19:52:35.537Z,4.90
2018-04-12T19:55:03.403Z,4.90
2018-04-12T19:57:31.994Z,4.80
2018-04-12T19:59:59.911Z,4.80
2018-04-12T20:02:30.290Z,4.80
2018-04-12T20:04:58.105Z,4.70
2018-04-12T20:07:26.199Z,4.70
2018-04-12T20:09:54.915Z,4.60
2018-04-12T20:12:24.520Z,4.50
2018-04-12T20:14:52.350Z,4.50
2018-04-12T20:17:20.178Z,4.50
2018-04-12T20:19:48.774Z,4.40
2018-04-12T20:22:16.671Z,4.40
2018-04-12T20:24:48.293Z,4.40
2018-04-12T20:27:16.983Z,4.40
2018-04-12T20:29:45.560Z,4.40
2018-04-12T20:32:14.294Z,4.30
2018-04-12T20:34:43.054Z,4.30
2018-04-12T20:37:11.673Z,4.30
2018-04-12T20:39:39.675Z,4.30
2018-04-12T20:42:07.589Z,4.20
2018-04-12T20:44:36.196Z,4.20
2018-04-12T20:47:04.054Z,4.20
2018-04-12T20:49:32.698Z,4.20
2018-04-12T20:52:00.336Z,4.10
2018-04-12T20:54:28.688Z,4.10
2018-04-12T20:56:57.281Z,4.10
2018-04-12T20:59:25.632Z,4.10
2018-04-12T21:01:54.932Z,4.00
2018-04-12T21:04:22.838Z,4.00
2018-04-12T21:06:51.522Z,4.00
2018-04-12T21:09:20.350Z,4.00
2018-04-12T21:11:47.912Z,4.00
2018-04-12T21:14:15.477Z,4.00
2018-04-12T21:16:43.281Z,4.00
2018-04-12T21:19:11.116Z,3.90
2018-04-12T21:21:39.820Z,3.90
2018-04-12T21:24:07.488Z,3.90
2018-04-12T21:26:35.296Z,3.90
2018-04-12T21:29:03.129Z,3.90
2018-04-12T21:31:30.922Z,3.90
2018-04-12T21:33:58.755Z,3.90
2018-04-12T21:36:26.553Z,3.90
2018-04-12T21:38:54.419Z,3.80
2018-04-12T21:41:22.247Z,3.80
2018-04-12T21:43:50.582Z,3.80
2018-04-12T21:46:18.490Z,3.80
2018-04-12T21:48:46.851Z,3.80
2018-04-12T21:51:14.705Z,3.80
2018-04-12T21:53:42.595Z,3.80
2018-04-12T21:56:10.175Z,3.80
2018-04-12T21:58:37.813Z,3.80
2018-04-12T22:01:05.674Z,3.70
2018-04-12T22:03:33.518Z,3.80
2018-04-12T22:06:02.068Z,3.70
2018-04-12T22:08:30.134Z,3.70
2018-04-12T22:10:58.776Z,3.60
2018-04-12T22:13:31.178Z,3.60
2018-04-12T22:15:59.189Z,3.60
2018-04-12T22:18:27.004Z,3.60
2018-04-12T22:20:54.972Z,3.50
2018-04-12T22:23:23.755Z,3.50
2018-04-12T22:25:51.626Z,3.50
2018-04-12T22:28:19.464Z,3.50
2018-04-12T22:30:47.465Z,3.50
2018-04-12T22:33:15.360Z,3.40
2018-04-12T22:35:43.334Z,3.40
2018-04-12T22:38:11.162Z,3.40
2018-04-12T22:40:38.722Z,3.40
2018-04-12T22:43:06.598Z,3.40
2018-04-12T22:45:35.210Z,3.30
2018-04-12T22:48:02.843Z,3.30
2018-04-12T22:50:30.634Z,3.30
2018-04-12T22:52:58.978Z,3.30
2018-04-12T22:55:26.894Z,3.30
2018-04-12T22:57:55.450Z,3.30
2018-04-12T23:00:23.031Z,3.30
2018-04-12T23:02:51.618Z,3.20
2018-04-12T23:05:20.101Z,3.20
2018-04-12T23:07:48.505Z,3.20
2018-04-12T23:10:17.158Z,3.20
2018-04-12T23:12:45.070Z,3.20
2018-04-12T23:15:14.386Z,3.20
2018-04-12T23:17:42.259Z,3.20
2018-04-12T23:20:10.102Z,3.10
2018-04-12T23:22:38.678Z,3.10
2018-04-12T23:25:06.467Z,3.10
2018-04-12T23:27:35.281Z,3.10
2018-04-12T23:30:03.110Z,3.00
2018-04-12T23:32:32.548Z,3.00
2018-04-12T23:35:00.974Z,3.00
2018-04-12T23:37:28.910Z,3.00
2018-04-12T23:39:56.815Z,3.00
2018-04-12T23:42:24.657Z,3.00
2018-04-12T23:44:52.478Z,3.00
2018-04-12T23:47:20.525Z,3.00
2018-04-12T23:49:49.076Z,2.90
2018-04-12T23:52:17.536Z,2.90
2018-04-12T23:54:45.449Z,2.90
2018-04-12T23:57:13.340Z,2.90
2018-04-12T23:59:41.082Z,2.80
